Time;durP1;ratioP1;P1;durP2;ratioP2;P2;SDS_P1;SDS_P2;PMS_P1;PMS_P2;Temp;Humidity;BMP_temperature;BMP_pressure;BME280_temperature;BME280_humidity;BME280_pressure;Samples;Min_cycle;Max_cycle;Signal;HPM_P1;HPM_P2
2022/10/02 00:02:01;;;;;;;7.70;4.30;;;;;;;20.37;93.58;97639.75;5093144;28;20545;-57
2022/10/02 00:04:57;;;;;;;6.88;4.40;;;;;;;20.29;95.58;97600.44;5093067;28;20640;-57
2022/10/02 00:07:34;;;;;;;7.88;4.72;;;;;;;20.20;96.82;97591.03;5092815;28;20160;-57
2022/10/02 00:10:13;;;;;;;6.15;4.90;;;;;;;20.13;98.19;97619.03;5092795;28;20634;-57
2022/10/02 00:12:39;;;;;;;7.57;4.53;;;;;;;20.06;98.78;97633.88;5092962;28;20166;-57
2022/10/02 00:15:19;;;;;;;8.43;4.80;;;;;;;20.05;99.96;97658.53;5092736;28;20171;-58
2022/10/02 00:17:48;;;;;;;5.43;4.93;;;;;;;20.03;100.00;97673.63;5092706;28;20168;-57
2022/10/02 00:20:18;;;;;;;7.55;4.93;;;;;;;20.02;100.00;97672.00;5092459;28;20207;-58
2022/10/02 00:22:46;;;;;;;4.85;3.53;;;;;;;20.14;98.00;97681.09;5092760;28;20259;-58
2022/10/02 00:25:34;;;;;;;6.63;4.85;;;;;;;19.84;100.00;97677.63;5092416;28;20247;-58
2022/10/02 00:28:05;;;;;;;6.22;4.50;;;;;;;19.84;100.00;97692.56;5092447;28;20183;-58
2022/10/02 00:30:50;;;;;;;8.10;4.20;;;;;;;19.84;100.00;97708.31;5092421;28;20203;-57
2022/10/02 00:33:43;;;;;;;5.55;3.85;;;;;;;19.88;100.00;97706.97;5122628;27;20158;-57
2022/10/02 00:36:24;;;;;;;5.88;3.92;;;;;;;19.95;100.00;97697.38;5092575;28;20250;-58
2022/10/02 00:39:14;;;;;;;4.70;3.58;;;;;;;20.01;100.00;97696.66;5092543;28;20531;-57
2022/10/02 00:42:16;;;;;;;4.38;2.60;;;;;;;20.04;98.69;97702.34;5092525;28;20168;-57
2022/10/02 00:44:59;;;;;;;6.15;2.60;;;;;;;20.18;95.80;97711.25;5081642;28;20661;-58
2022/10/02 00:47:34;;;;;;;2.50;2.30;;;;;;;20.41;90.13;97706.72;5092316;28;20167;-57
2022/10/02 00:50:22;;;;;;;7.00;2.53;;;;;;;20.61;87.88;97720.91;5092183;28;20228;-57
2022/10/02 00:53:24;;;;;;;2.55;2.40;;;;;;;20.73;87.51;97708.91;5092183;28;20172;-57
2022/10/02 00:56:15;;;;;;;4.45;2.47;;;;;;;20.80;86.88;97721.13;5092521;28;20164;-58
2022/10/02 00:59:07;;;;;;;3.50;2.10;;;;;;;20.81;87.08;97712.25;5092272;28;20609;-57
2022/10/02 01:01:40;;;;;;;2.53;1.90;;;;;;;20.89;85.54;97708.72;5090971;28;20657;-57
2022/10/02 01:04:11;;;;;;;3.05;2.50;;;;;;;20.92;86.54;97703.09;5092277;28;20278;-57
2022/10/02 01:06:36;;;;;;;2.20;2.10;;;;;;;20.91;85.78;97715.44;5092268;28;20191;-57
2022/10/02 01:09:02;;;;;;;3.67;2.28;;;;;;;20.95;85.08;97718.50;5092139;28;20699;-57
2022/10/02 01:11:29;;;;;;;2.30;1.90;;;;;;;20.90;85.72;97718.22;5091856;28;20681;-57
2022/10/02 01:13:55;;;;;;;2.40;2.08;;;;;;;20.79;87.66;97721.31;5091949;28;20174;-58
2022/10/02 01:16:21;;;;;;;3.03;2.28;;;;;;;20.72;88.25;97723.06;5091930;28;20264;-58
2022/10/02 01:18:47;;;;;;;2.05;1.95;;;;;;;20.63;88.54;97718.91;5091789;28;20317;-58
2022/10/02 01:21:32;;;;;;;2.05;1.95;;;;;;;20.54;88.92;97714.75;5091805;28;20224;-58
2022/10/02 01:24:26;;;;;;;2.47;2.28;;;;;;;20.48;89.60;97716.31;5091768;28;20187;-57
2022/10/02 01:26:51;;;;;;;3.22;2.20;;;;;;;20.41;89.27;97699.63;5091936;28;20242;-59
2022/10/02 01:29:17;;;;;;;3.58;2.25;;;;;;;20.36;89.30;97682.78;5092121;28;20175;-58
2022/10/02 01:31:42;;;;;;;2.33;2.13;;;;;;;20.37;89.96;97684.41;5107452;28;20180;-58
2022/10/02 01:34:08;;;;;;;4.60;2.13;;;;;;;20.31;89.90;97677.28;5091707;28;20250;-58
2022/10/02 01:36:34;;;;;;;3.33;2.22;;;;;;;20.32;89.90;97676.25;5091768;28;20313;-58
2022/10/02 01:39:00;;;;;;;3.85;2.30;;;;;;;20.35;89.98;97679.34;5091732;28;20251;-58
2022/10/02 01:41:26;;;;;;;3.15;2.13;;;;;;;20.16;91.68;97684.38;5091694;28;20180;-58
2022/10/02 01:43:59;;;;;;;3.10;2.80;;;;;;;20.01;93.51;97696.66;5091622;28;20198;-58
2022/10/02 01:46:44;;;;;;;2.97;2.40;;;;;;;19.97;94.55;97693.56;5092180;28;20176;-58
2022/10/02 01:49:50;;;;;;;3.13;2.60;;;;;;;19.98;94.38;97702.25;5092230;28;20167;-58
2022/10/02 01:52:30;;;;;;;3.80;2.53;;;;;;;19.84;95.38;97695.19;5091844;28;20166;-58
2022/10/02 01:55:21;;;;;;;5.30;2.30;;;;;;;19.84;93.22;97682.88;5092146;28;20167;-58
2022/10/02 01:58:11;;;;;;;3.40;2.13;;;;;;;19.87;91.96;97677.25;5093170;28;20217;-58
2022/10/02 02:00:49;;;;;;;5.95;2.40;;;;;;;19.84;92.16;97668.94;5095232;28;20172;-58
2022/10/02 02:03:14;;;;;;;2.30;2.10;;;;;;;19.87;92.85;97668.56;5095688;28;20602;-58
2022/10/02 02:05:39;;;;;;;6.00;2.13;;;;;;;19.92;92.97;97667.03;5095102;28;20176;-58
2022/10/02 02:08:12;;;;;;;4.35;2.38;;;;;;;19.86;93.29;97677.44;5095032;28;20174;-58
2022/10/02 02:10:46;;;;;;;4.75;2.35;;;;;;;19.92;93.52;97697.72;5094915;28;20223;-57
2022/10/02 02:13:36;;;;;;;3.20;2.40;;;;;;;19.99;93.71;97709.16;5095187;28;20164;-58
2022/10/02 02:16:13;;;;;;;2.30;2.10;;;;;;;20.16;91.53;97715.88;5094918;28;20187;-58
2022/10/02 02:19:00;;;;;;;2.47;2.38;;;;;;;20.40;90.23;97715.59;5095006;28;20218;-58
2022/10/02 02:21:31;;;;;;;4.93;2.38;;;;;;;20.57;89.14;97730.16;5094832;28;20174;-58
2022/10/02 02:24:01;;;;;;;5.95;2.47;;;;;;;20.73;88.57;97720.25;5094715;28;20274;-58
2022/10/02 02:26:29;;;;;;;6.03;2.63;;;;;;;20.77;87.68;97725.94;5095006;28;20233;-58
2022/10/02 02:29:01;;;;;;;3.65;2.38;;;;;;;20.81;86.03;97740.38;5094942;28;20200;-58
2022/10/02 02:31:36;;;;;;;5.20;2.40;;;;;;;20.90;83.95;97757.69;5094674;28;20168;-58
2022/10/02 02:34:08;;;;;;;3.13;2.17;;;;;;;20.93;83.55;97757.31;5094849;28;20160;-58
2022/10/02 02:36:41;;;;;;;1.77;1.67;;;;;;;21.01;82.37;97749.31;5094803;28;20168;-58
2022/10/02 02:39:11;;;;;;;3.17;1.63;;;;;;;21.08;81.56;97772.06;5094505;28;20531;-58
2022/10/02 02:41:51;;;;;;;4.07;1.63;;;;;;;21.16;81.37;97765.88;5094679;28;20186;-58
2022/10/02 02:44:20;;;;;;;3.70;1.58;;;;;;;21.20;82.96;97788.16;5127492;27;20200;-58
2022/10/02 02:47:03;;;;;;;2.40;1.33;;;;;;;21.19;83.73;97786.53;5094586;28;20176;-59
2022/10/02 02:49:51;;;;;;;1.33;1.23;;;;;;;21.18;84.70;97795.44;5094579;28;20163;-58
2022/10/02 02:52:34;;;;;;;4.35;2.00;;;;;;;21.15;86.21;97778.22;5094078;28;20589;-58
2022/10/02 02:55:15;;;;;;;4.43;1.60;;;;;;;21.04;88.00;97778.69;5094644;28;20160;-58
2022/10/02 02:58:09;;;;;;;1.73;1.50;;;;;;;21.03;88.38;97784.16;5094392;28;20531;-58
2022/10/02 03:00:34;;;;;;;2.47;1.60;;;;;;;20.96;87.97;97784.06;5091943;27;20188;-58
2022/10/02 03:03:00;;;;;;;1.27;1.00;;;;;;;21.02;87.08;97814.06;5093935;28;20178;-58
2022/10/02 03:05:28;;;;;;;1.65;1.10;;;;;;;21.01;86.42;97802.75;5094253;28;20211;-58
2022/10/02 03:08:04;;;;;;;2.15;1.10;;;;;;;21.00;86.35;97801.13;5094219;28;20176;-58
2022/10/02 03:11:00;;;;;;;2.20;0.90;;;;;;;20.97;86.05;97805.94;5093083;28;20218;-58
2022/10/02 03:13:31;;;;;;;1.40;1.10;;;;;;;20.94;86.55;97819.44;5093897;28;20148;-58
2022/10/02 03:16:10;;;;;;;1.48;0.90;;;;;;;20.93;87.76;97836.22;5092525;28;20255;-58
2022/10/02 03:19:05;;;;;;;1.33;1.15;;;;;;;20.88;88.78;97844.69;5092528;28;20167;-58
2022/10/02 03:21:42;;;;;;;1.40;0.98;;;;;;;20.79;91.78;97850.16;5093835;28;20168;-58
2022/10/02 03:24:13;;;;;;;1.27;1.10;;;;;;;20.71;93.58;97868.66;5093492;28;20233;-58
2022/10/02 03:26:44;;;;;;;2.00;0.93;;;;;;;20.64;94.81;97863.31;5093558;28;20552;-58
2022/10/02 03:29:17;;;;;;;1.83;0.88;;;;;;;20.62;88.30;97870.56;5093764;28;20168;-58
2022/10/02 03:31:43;;;;;;;1.00;1.00;;;;;;;20.56;87.44;97865.22;5093632;28;20164;-58
2022/10/02 03:34:10;;;;;;;1.00;1.00;;;;;;;20.47;87.36;97859.25;5093370;28;20203;-58
2022/10/02 03:36:36;;;;;;;1.23;0.90;;;;;;;20.50;86.55;97863.31;5093354;28;20172;-58
2022/10/02 03:39:04;;;;;;;0.80;0.80;;;;;;;20.39;87.28;97842.75;5093555;28;20178;-58
2022/10/02 03:41:29;;;;;;;1.08;0.68;;;;;;;20.43;85.94;97863.22;5093466;28;20175;-58
2022/10/02 03:43:55;;;;;;;0.50;0.50;;;;;;;20.44;86.06;97872.75;5093165;28;20191;-58
2022/10/02 03:46:20;;;;;;;0.60;0.60;;;;;;;20.48;87.42;97878.44;5093418;28;20168;-58
2022/10/02 03:48:45;;;;;;;0.80;0.80;;;;;;;20.43;87.65;97878.16;5093181;28;20171;-58
2022/10/02 03:51:11;;;;;;;1.23;0.88;;;;;;;20.46;87.68;97896.22;5093107;28;20585;-58
2022/10/02 03:53:38;;;;;;;2.83;1.48;;;;;;;20.53;86.54;97886.63;5093267;28;20649;-58
2022/10/02 03:56:24;;;;;;;1.65;1.10;;;;;;;20.51;85.57;97896.50;5093319;28;20254;-58
2022/10/02 03:58:52;;;;;;;1.58;1.48;;;;;;;20.49;84.23;97882.69;5093090;28;20236;-58
2022/10/02 04:01:27;;;;;;;1.08;1.00;;;;;;;20.53;81.36;97897.97;5092891;28;20179;-58
2022/10/02 04:04:00;;;;;;;2.15;1.20;;;;;;;20.53;80.84;97890.06;5092825;28;20198;-58
2022/10/02 04:06:33;;;;;;;1.67;1.48;;;;;;;20.50;81.06;97879.06;5093011;28;20570;-58
2022/10/02 04:09:07;;;;;;;1.45;1.35;;;;;;;20.52;80.08;97885.00;5092802;28;20171;-58
2022/10/02 04:11:46;;;;;;;3.35;1.30;;;;;;;20.53;77.37;97886.63;5092699;28;20195;-58
2022/10/02 04:14:20;;;;;;;1.50;1.40;;;;;;;20.50;77.52;97889.59;5125870;27;20621;-58
2022/10/02 04:17:24;;;;;;;1.42;1.33;;;;;;;20.56;74.95;97900.22;5092952;28;20163;-58
2022/10/02 04:19:58;;;;;;;1.77;0.82;;;;;;;20.54;71.66;97896.13;5070217;28;20204;-58
2022/10/02 04:22:29;;;;;;;3.75;0.90;;;;;;;20.56;70.14;97915.16;5089511;28;20191;-58
2022/10/02 04:24:55;;;;;;;2.97;0.93;;;;;;;20.52;69.13;97921.78;5091218;28;20200;-58
2022/10/02 04:27:24;;;;;;;1.17;0.70;;;;;;;20.49;69.54;97933.47;5092493;28;20738;-58
2022/10/02 04:30:03;;;;;;;2.17;0.80;;;;;;;20.49;69.21;97928.22;5092449;28;20262;-58
2022/10/02 04:32:31;;;;;;;2.92;0.80;;;;;;;20.46;69.41;97940.91;5092665;28;20167;-58
2022/10/02 04:34:58;;;;;;;0.80;0.80;;;;;;;20.39;69.82;97943.41;5092386;28;20329;-58
2022/10/02 04:37:27;;;;;;;3.78;1.17;;;;;;;20.37;70.81;97932.28;5092380;28;20184;-58
2022/10/02 04:40:15;;;;;;;0.90;0.90;;;;;;;20.37;71.27;97944.56;5092581;28;20183;-58
2022/10/02 04:42:51;;;;;;;0.98;0.85;;;;;;;20.36;71.40;97953.47;5080930;28;20192;-58
2022/10/02 04:45:53;;;;;;;1.33;1.23;;;;;;;20.27;71.70;97960.59;5092751;28;20206;-58
2022/10/02 04:48:58;;;;;;;1.10;1.00;;;;;;;20.20;72.04;97957.03;5092142;28;20191;-58
2022/10/02 04:51:23;;;;;;;3.78;1.50;;;;;;;20.19;72.71;97950.16;5092371;28;20589;-58
2022/10/02 04:54:22;;;;;;;1.50;1.27;;;;;;;20.16;72.74;97957.56;5092356;28;20176;-58
2022/10/02 04:57:12;;;;;;;2.92;1.80;;;;;;;20.11;73.02;97973.84;5092372;28;20164;-58
2022/10/02 05:00:10;;;;;;;1.60;1.50;;;;;;;20.11;72.20;97950.19;5092057;28;20183;-58
2022/10/02 05:03:00;;;;;;;1.52;1.42;;;;;;;20.15;70.78;97953.28;5092684;28;20164;-58
2022/10/02 05:05:44;;;;;;;1.70;1.60;;;;;;;20.17;70.82;97969.72;5092335;28;20164;-58
2022/10/02 05:08:41;;;;;;;2.70;1.60;;;;;;;20.23;70.18;97967.19;5092045;28;20663;-58
2022/10/02 05:11:39;;;;;;;1.83;1.73;;;;;;;20.28;69.80;97978.00;5092140;28;20200;-58
2022/10/02 05:14:27;;;;;;;2.75;1.75;;;;;;;20.29;68.89;97984.06;5082809;28;20673;-58
2022/10/02 05:17:26;;;;;;;2.17;2.08;;;;;;;20.34;68.71;98000.13;5092127;28;20280;-58
2022/10/02 05:20:23;;;;;;;2.28;2.17;;;;;;;20.37;68.19;98000.59;5090550;28;20198;-58
2022/10/02 05:23:10;;;;;;;2.45;1.77;;;;;;;20.38;67.28;98004.03;5091883;28;20160;-58
2022/10/02 05:25:51;;;;;;;2.72;1.98;;;;;;;20.33;67.02;98015.06;5092336;28;20262;-58
2022/10/02 05:28:40;;;;;;;2.03;1.77;;;;;;;20.24;66.57;98002.16;5092002;28;20176;-58
2022/10/02 05:31:12;;;;;;;2.20;1.90;;;;;;;20.19;67.50;98021.09;5091952;28;20164;-58
2022/10/02 05:34:04;;;;;;;2.08;1.92;;;;;;;20.15;67.58;98014.53;5094826;28;20172;-58
2022/10/02 05:36:37;;;;;;;2.13;2.03;;;;;;;20.19;67.23;98036.03;5095892;28;20186;-58
2022/10/02 05:39:13;;;;;;;2.20;2.10;;;;;;;20.16;67.87;98036.38;5095656;28;20174;-58
2022/10/02 05:41:54;;;;;;;2.45;1.77;;;;;;;20.24;67.27;98050.28;5095686;28;20549;-58
2022/10/02 05:44:40;;;;;;;1.90;1.80;;;;;;;20.27;66.94;98049.94;5095803;28;20214;-58
2022/10/02 05:47:28;;;;;;;1.85;1.75;;;;;;;20.34;66.87;98047.44;5095460;28;20186;-58
2022/10/02 05:50:11;;;;;;;1.90;1.75;;;;;;;20.39;66.48;98050.38;5095752;28;20191;-58
2022/10/02 05:52:42;;;;;;;1.90;1.90;;;;;;;20.40;65.42;98057.25;5095655;28;20617;-59
2022/10/02 05:55:13;;;;;;;2.40;2.20;;;;;;;20.44;65.30;98066.41;5095334;28;20672;-59
2022/10/02 05:57:44;;;;;;;1.70;1.60;;;;;;;20.45;64.88;98058.34;5095271;28;20176;-58
2022/10/02 06:00:15;;;;;;;2.10;2.00;;;;;;;20.51;65.29;98072.63;5095316;28;20233;-59
2022/10/02 06:03:07;;;;;;;1.63;1.52;;;;;;;20.50;64.69;98076.22;5095255;28;20168;-59
2022/10/02 06:05:42;;;;;;;2.67;1.70;;;;;;;20.47;64.28;98076.56;5095176;28;20235;-58
2022/10/02 06:08:13;;;;;;;2.88;2.13;;;;;;;20.51;64.89;98078.69;5095369;28;20160;-59
2022/10/02 06:10:47;;;;;;;2.67;2.13;;;;;;;20.57;65.09;98092.94;5095155;28;20248;-58
2022/10/02 06:13:22;;;;;;;1.85;1.75;;;;;;;20.65;64.41;98093.72;5095237;28;20208;-59
2022/10/02 06:16:08;;;;;;;5.55;2.50;;;;;;;20.71;63.35;98094.81;5094983;28;20198;-59
2022/10/02 06:18:38;;;;;;;1.48;1.48;;;;;;;20.82;61.68;98110.19;5095264;28;20148;-59
2022/10/02 06:21:14;;;;;;;1.60;1.60;;;;;;;20.88;61.34;98102.44;5094834;28;20237;-59
2022/10/02 06:23:49;;;;;;;3.90;1.63;;;;;;;20.91;60.75;98115.22;5094673;28;20190;-56
2022/10/02 06:26:38;;;;;;;2.20;1.52;;;;;;;20.90;60.45;98094.34;5094801;28;20332;-59
2022/10/02 06:29:10;;;;;;;1.60;1.50;;;;;;;20.96;60.81;98096.28;5095066;28;20152;-59
2022/10/02 06:31:44;;;;;;;1.92;1.70;;;;;;;20.96;60.12;98098.91;5095326;28;20638;-59
2022/10/02 06:34:11;;;;;;;2.20;1.55;;;;;;;21.01;59.99;98107.91;5095192;28;20152;-58
2022/10/02 06:36:55;;;;;;;1.98;1.60;;;;;;;21.02;60.06;98111.34;5094598;28;20192;-59
2022/10/02 06:39:38;;;;;;;1.90;1.50;;;;;;;21.09;60.01;98117.56;5094831;28;20187;-59
2022/10/02 06:42:31;;;;;;;1.95;1.70;;;;;;;21.15;59.38;98124.75;5093296;28;20164;-59
2022/10/02 06:45:34;;;;;;;1.60;1.50;;;;;;;21.29;58.71;98129.22;5093277;28;20628;-59
2022/10/02 06:48:12;;;;;;;2.08;1.85;;;;;;;21.37;58.39;98108.06;5086921;28;20184;-59
2022/10/02 06:50:52;;;;;;;1.42;1.38;;;;;;;21.52;56.53;98114.16;5093063;28;20700;-59
2022/10/02 06:53:43;;;;;;;1.92;1.50;;;;;;;21.57;56.24;98110.00;5092932;28;20159;-59
2022/10/02 06:56:44;;;;;;;1.75;1.65;;;;;;;21.63;56.67;98116.38;5094599;28;20156;-59
2022/10/02 06:59:12;;;;;;;3.13;1.30;;;;;;;21.62;55.45;98115.53;5094294;28;20160;-59
2022/10/02 07:01:57;;;;;;;1.33;1.33;;;;;;;21.58;55.32;98118.72;5094415;28;20255;-59
2022/10/02 07:04:54;;;;;;;1.63;1.40;;;;;;;21.48;55.18;98142.69;5092883;28;20212;-59
2022/10/02 07:08:00;;;;;;;1.48;1.30;;;;;;;21.52;54.46;98136.06;5093998;28;20582;-59
2022/10/02 07:10:41;;;;;;;1.45;1.35;;;;;;;21.50;54.24;98151.22;5094047;28;20208;-58
2022/10/02 07:13:24;;;;;;;1.23;1.08;;;;;;;21.49;54.93;98157.47;5094143;28;20205;-59
2022/10/02 07:15:53;;;;;;;2.03;1.30;;;;;;;21.54;54.85;98151.66;5092553;28;20175;-59
2022/10/02 07:18:36;;;;;;;3.20;1.40;;;;;;;21.56;55.22;98144.41;5093737;28;20171;-59
2022/10/02 07:21:33;;;;;;;4.72;1.40;;;;;;;21.60;54.43;98143.03;5093652;28;20187;-59
2022/10/02 07:24:12;;;;;;;1.05;1.05;;;;;;;21.56;54.42;98133.88;5091411;28;20207;-58
2022/10/02 07:26:48;;;;;;;2.97;1.55;;;;;;;21.61;53.94;98139.44;5093582;28;20177;-59
2022/10/02 07:29:46;;;;;;;2.67;1.33;;;;;;;21.67;53.76;98146.63;5093620;28;20170;-58
2022/10/02 07:32:39;;;;;;;1.10;1.10;;;;;;;21.78;53.10;98136.47;5093499;28;20649;-58
2022/10/02 07:35:26;;;;;;;1.95;1.10;;;;;;;21.84;52.98;98137.53;5093575;28;20156;-58
2022/10/02 07:38:23;;;;;;;4.80;1.45;;;;;;;21.82;51.76;98134.28;5093354;28;20183;-58
2022/10/02 07:41:17;;;;;;;3.90;1.23;;;;;;;21.79;50.85;98147.84;5093652;28;20160;-58
2022/10/02 07:43:49;;;;;;;1.30;1.20;;;;;;;21.84;51.46;98137.53;5091857;28;20284;-58
2022/10/02 07:46:44;;;;;;;1.63;1.35;;;;;;;21.91;50.50;98156.91;5091915;28;20163;-58
2022/10/02 07:49:40;;;;;;;4.57;1.52;;;;;;;21.83;49.50;98152.53;5093068;28;20160;-58
2022/10/02 07:52:53;;;;;;;1.90;1.60;;;;;;;21.97;49.47;98164.09;5093252;28;20547;-57
2022/10/02 07:55:20;;;;;;;3.60;1.50;;;;;;;22.03;48.72;98166.78;5082669;28;20187;-58
2022/10/02 07:58:17;;;;;;;1.58;1.30;;;;;;;22.11;48.96;98179.06;5093110;28;20176;-58
2022/10/02 08:00:46;;;;;;;2.42;1.30;;;;;;;22.23;48.24;98180.25;5093238;28;20611;-58
2022/10/02 08:03:16;;;;;;;2.55;1.73;;;;;;;22.27;48.34;98165.69;5092818;28;20555;-59
2022/10/02 08:05:48;;;;;;;1.30;1.30;;;;;;;22.36;48.93;98159.31;5092951;28;20156;-58
2022/10/02 08:08:43;;;;;;;3.83;1.30;;;;;;;22.46;48.08;98144.88;5092866;28;20168;-58
2022/10/02 08:11:14;;;;;;;3.53;1.50;;;;;;;22.59;49.03;98152.09;5093031;28;20237;-58
2022/10/02 08:13:46;;;;;;;3.85;1.55;;;;;;;22.60;47.19;98130.03;5092754;28;20156;-58
2022/10/02 08:16:15;;;;;;;2.33;1.73;;;;;;;22.57;47.59;98141.75;5092619;28;20214;-58
2022/10/02 08:18:47;;;;;;;4.18;1.50;;;;;;;22.55;47.40;98156.13;5092727;28;20198;-57
2022/10/02 08:21:19;;;;;;;3.50;1.40;;;;;;;22.54;46.58;98151.84;5092873;28;20179;-57
2022/10/02 08:23:57;;;;;;;1.50;1.23;;;;;;;22.57;45.82;98167.31;5092497;28;20184;-57
2022/10/02 08:26:37;;;;;;;1.25;1.15;;;;;;;22.59;45.71;98181.94;5092923;28;20630;-57
2022/10/02 08:29:09;;;;;;;2.05;1.30;;;;;;;22.55;45.43;98146.38;5092585;28;20573;-57
2022/10/02 08:31:34;;;;;;;4.88;1.77;;;;;;;22.49;45.56;98154.25;5092506;28;20211;-57
2022/10/02 08:34:16;;;;;;;3.55;1.33;;;;;;;22.47;44.97;98158.88;5092705;28;20179;-58
2022/10/02 08:36:43;;;;;;;5.10;1.25;;;;;;;22.52;45.42;98172.31;5092355;28;20152;-57
2022/10/02 08:39:51;;;;;;;1.35;1.25;;;;;;;22.56;45.35;98202.59;5092514;28;20195;-58
2022/10/02 08:43:05;;;;;;;2.88;1.60;;;;;;;22.61;45.48;98197.59;5092489;28;20182;-57
2022/10/02 08:46:01;;;;;;;1.20;1.17;;;;;;;22.68;45.96;98201.13;5086737;28;20626;-57
2022/10/02 08:48:32;;;;;;;2.80;1.20;;;;;;;22.78;45.45;98228.03;5087485;28;20191;-60
2022/10/02 08:51:43;;;;;;;1.75;1.40;;;;;;;22.84;45.48;98216.72;5092013;28;20228;-57
2022/10/02 08:54:41;;;;;;;1.15;1.13;;;;;;;22.92;44.85;98212.16;5092030;28;20239;-57
2022/10/02 08:57:34;;;;;;;2.67;1.50;;;;;;;22.99;44.97;98220.13;5092341;28;20277;-57
2022/10/02 09:00:24;;;;;;;1.67;1.17;;;;;;;22.98;44.24;98218.50;5092032;28;20164;-58
2022/10/02 09:03:05;;;;;;;1.33;1.23;;;;;;;23.08;43.73;98235.66;5092625;28;20156;-57
2022/10/02 09:06:00;;;;;;;1.10;1.10;;;;;;;23.08;43.19;98214.53;5092214;28;20188;-57
2022/10/02 09:08:38;;;;;;;2.83;1.13;;;;;;;23.14;43.73;98215.63;5093543;28;20174;-57
2022/10/02 09:11:56;;;;;;;1.88;1.10;;;;;;;23.21;43.23;98205.97;5096191;28;20202;-59
2022/10/02 09:14:41;;;;;;;3.15;1.40;;;;;;;23.22;43.52;98210.22;5084203;28;20571;-57
2022/10/02 09:17:46;;;;;;;4.75;1.55;;;;;;;23.21;44.20;98203.31;5096164;28;20175;-57
2022/10/02 09:20:12;;;;;;;1.35;1.10;;;;;;;23.27;43.42;98211.31;5089505;28;20206;-57
2022/10/02 09:22:55;;;;;;;2.30;1.25;;;;;;;23.30;43.39;98223.31;5096111;28;20179;-57
2022/10/02 09:25:52;;;;;;;1.48;1.13;;;;;;;23.34;43.52;98220.09;5095849;28;20684;-58
2022/10/02 09:28:55;;;;;;;1.95;1.25;;;;;;;23.46;43.76;98212.47;5096117;28;20164;-58
2022/10/02 09:31:38;;;;;;;2.00;1.90;;;;;;;23.54;43.00;98228.22;5095847;28;20232;-58
2022/10/02 09:34:38;;;;;;;3.00;1.52;;;;;;;23.53;41.77;98226.59;5095691;28;20655;-58
2022/10/02 09:37:27;;;;;;;1.90;1.17;;;;;;;23.37;40.78;98225.00;5095839;28;20195;-59
2022/10/02 09:40:14;;;;;;;0.85;0.85;;;;;;;23.29;41.07;98221.66;5095940;28;20693;-59
2022/10/02 09:42:59;;;;;;;1.92;1.02;;;;;;;23.33;40.80;98212.38;5094358;28;20342;-58
2022/10/02 09:45:36;;;;;;;1.00;1.00;;;;;;;23.33;40.35;98196.53;5095668;28;20225;-58
2022/10/02 09:48:29;;;;;;;1.48;0.95;;;;;;;23.41;40.69;98206.94;5095556;28;20222;-58
2022/10/02 09:51:41;;;;;;;1.40;1.00;;;;;;;23.37;40.00;98192.50;5094951;28;20653;-58
2022/10/02 09:54:44;;;;;;;0.82;0.82;;;;;;;23.44;41.11;98198.66;5093958;28;20175;-58
2022/10/02 09:57:47;;;;;;;1.20;1.10;;;;;;;23.49;40.61;98197.06;5094972;28;20571;-58
2022/10/02 10:00:12;;;;;;;1.35;1.30;;;;;;;23.56;39.98;98194.47;5095390;28;20171;-58
2022/10/02 10:02:59;;;;;;;1.10;1.10;;;;;;;23.65;39.13;98196.78;5095166;28;20182;-58
2022/10/02 10:05:47;;;;;;;1.65;1.00;;;;;;;23.71;39.26;98195.22;5095076;28;20635;-58
2022/10/02 10:08:34;;;;;;;1.10;1.10;;;;;;;23.83;39.80;98198.97;5095287;28;20209;-58
2022/10/02 10:11:21;;;;;;;1.27;1.08;;;;;;;23.84;38.65;98198.75;5095079;28;20317;-58
2022/10/02 10:14:27;;;;;;;0.90;0.90;;;;;;;23.99;38.93;98204.78;5095120;28;20201;-58
2022/10/02 10:17:13;;;;;;;1.08;1.00;;;;;;;24.15;38.62;98204.47;5095353;28;20152;-58
2022/10/02 10:19:50;;;;;;;1.48;1.10;;;;;;;24.17;37.61;98197.16;5094506;28;20180;-58
2022/10/02 10:22:40;;;;;;;1.00;0.80;;;;;;;24.17;37.56;98191.88;5095093;28;20213;-58
2022/10/02 10:25:09;;;;;;;3.22;0.82;;;;;;;24.26;36.99;98201.28;5094970;28;20267;-58
2022/10/02 10:28:12;;;;;;;0.80;0.80;;;;;;;24.34;37.32;98204.59;5094768;28;20164;-58
2022/10/02 10:30:43;;;;;;;0.80;0.80;;;;;;;24.50;36.95;98219.31;5094717;28;20215;-58
2022/10/02 10:33:47;;;;;;;0.70;0.70;;;;;;;24.63;35.91;98199.03;5094641;28;20183;-58
2022/10/02 10:39:31;;;;;;;0.70;0.70;;;;;;;24.86;35.82;98199.53;5094463;28;20293;-58
2022/10/02 10:42:09;;;;;;;0.80;0.80;;;;;;;24.96;34.28;98207.88;5094549;28;20171;-58
2022/10/02 10:44:59;;;;;;;2.40;0.90;;;;;;;24.91;35.03;98212.16;5094596;28;20191;-58
2022/10/02 10:47:30;;;;;;;1.50;1.20;;;;;;;24.91;34.85;98202.38;5094195;28;20229;-58
2022/10/02 10:50:19;;;;;;;1.08;0.88;;;;;;;24.93;35.13;98207.47;5094194;28;20183;-58
2022/10/02 10:52:48;;;;;;;2.80;0.90;;;;;;;24.99;35.05;98204.84;5094066;28;20596;-58
2022/10/02 10:55:39;;;;;;;4.45;0.80;;;;;;;25.01;34.53;98224.00;5094204;28;20197;-58
2022/10/02 10:58:32;;;;;;;0.80;0.80;;;;;;;25.16;34.44;98223.81;5094577;28;20174;-58
2022/10/02 11:01:01;;;;;;;0.90;0.90;;;;;;;25.29;35.05;98231.81;5092704;28;20707;-58
2022/10/02 11:03:43;;;;;;;4.32;0.90;;;;;;;25.32;34.03;98223.47;5093977;28;20655;-58
2022/10/02 11:06:51;;;;;;;0.70;0.70;;;;;;;25.50;34.25;98216.56;5094210;28;20163;-58
2022/10/02 11:09:37;;;;;;;4.85;0.82;;;;;;;25.56;33.82;98244.06;5071634;28;20188;-58
2022/10/02 11:12:15;;;;;;;1.08;0.80;;;;;;;25.43;33.67;98231.63;5093288;28;20204;-58
2022/10/02 11:15:01;;;;;;;2.03;0.90;;;;;;;25.42;34.01;98237.94;5094099;28;20603;-58
2022/10/02 11:17:33;;;;;;;0.80;0.80;;;;;;;25.42;34.25;98231.84;5092532;28;20233;-58
2022/10/02 11:20:23;;;;;;;2.50;0.82;;;;;;;25.37;34.79;98235.06;5093579;28;20196;-58
2022/10/02 11:23:10;;;;;;;1.55;0.90;;;;;;;25.41;35.09;98241.63;5093978;28;20183;-58
2022/10/02 11:25:56;;;;;;;0.80;0.80;;;;;;;25.59;33.93;98249.78;5094132;28;20680;-58
2022/10/02 11:28:36;;;;;;;0.95;0.75;;;;;;;25.61;33.32;98229.19;5093702;28;20166;-58
2022/10/02 11:31:20;;;;;;;0.65;0.65;;;;;;;25.69;33.71;98241.41;5092589;28;20174;-58
2022/10/02 11:34:03;;;;;;;0.88;0.70;;;;;;;25.69;32.95;98242.25;5093946;28;20172;-58
2022/10/02 11:36:54;;;;;;;0.95;0.85;;;;;;;25.43;33.55;98247.50;5093349;28;20180;-58
2022/10/02 11:39:54;;;;;;;2.92;0.73;;;;;;;25.54;33.89;98246.91;5093605;28;20196;-58
2022/10/02 11:42:33;;;;;;;3.35;0.75;;;;;;;25.59;34.09;98241.81;5093474;28;20167;-58
2022/10/02 11:45:31;;;;;;;0.90;0.70;;;;;;;25.59;33.37;98236.53;5093293;28;20187;-58
2022/10/02 11:48:24;;;;;;;0.60;0.52;;;;;;;25.53;33.90;98218.78;5093192;28;20186;-58
2022/10/02 11:51:16;;;;;;;0.98;0.60;;;;;;;25.69;33.17;98221.03;5093596;28;20174;-58
2022/10/02 11:54:01;;;;;;;1.02;0.75;;;;;;;25.81;33.48;98222.06;5091886;28;20547;-58
2022/10/02 11:57:01;;;;;;;1.55;0.73;;;;;;;25.78;32.72;98237.56;5093334;28;20176;-58
2022/10/02 11:59:32;;;;;;;2.03;0.88;;;;;;;25.55;33.47;98223.91;5093138;28;20211;-58
2022/10/02 12:02:13;;;;;;;0.70;0.70;;;;;;;25.58;33.11;98221.66;5093022;28;20262;-58
2022/10/02 12:05:20;;;;;;;2.22;1.10;;;;;;;25.64;33.80;98212.88;5093186;28;20570;-58
2022/10/02 12:08:00;;;;;;;2.75;0.65;;;;;;;25.77;33.60;98215.50;5125967;27;20250;-58
2022/10/02 12:10:44;;;;;;;0.90;0.85;;;;;;;25.88;32.94;98217.56;5093149;28;20155;-58
2022/10/02 12:13:37;;;;;;;2.60;0.70;;;;;;;25.88;32.94;98233.47;5092793;28;20610;-58
2022/10/02 12:16:35;;;;;;;0.60;0.60;;;;;;;25.79;33.02;98213.50;5092897;28;20581;-58
2022/10/02 12:19:28;;;;;;;3.92;0.70;;;;;;;25.77;33.36;98210.22;5125759;27;20585;-58
2022/10/02 12:28:17;;;;;;;0.75;0.60;;;;;;;25.38;33.61;98217.38;5093102;28;20167;-58
2022/10/02 12:31:09;;;;;;;1.70;0.88;;;;;;;25.36;33.56;98195.56;5092454;28;20254;-58
2022/10/02 12:33:43;;;;;;;0.70;0.70;;;;;;;25.40;33.69;98202.91;5088572;28;20299;-58
2022/10/02 12:36:16;;;;;;;0.88;0.88;;;;;;;25.42;33.74;98208.78;5092558;28;20241;-58
2022/10/02 12:39:00;;;;;;;6.38;0.98;;;;;;;25.48;33.85;98201.88;5092589;28;20619;-58
2022/10/02 12:41:49;;;;;;;6.38;1.70;;;;;;;25.56;33.87;98207.81;5092094;28;20175;-58
2022/10/02 12:44:33;;;;;;;1.05;0.82;;;;;;;25.52;32.98;98217.16;5092636;28;20184;-58
2022/10/02 12:47:28;;;;;;;0.80;0.80;;;;;;;25.38;33.74;98223.47;5092420;28;20175;-59
2022/10/02 12:50:02;;;;;;;0.90;0.90;;;;;;;25.34;33.61;98219.59;5092007;28;20175;-58
2022/10/02 12:52:33;;;;;;;0.80;0.80;;;;;;;25.28;33.75;98217.75;5090909;28;20659;-60